Terminal Aerodrome Forecast
Issued by NWS Birmingham, AL

Home | Current Version | Previous Version | Text Only | Print | Product List | Glossary On
Versions: 1 2 3 4 5 6 7 8 9 10 11 12
000
FTUS44 KBMX 131139
TAFBHM
TAF
KBHM 131139Z 1312/1412 00000KT P6SM SKC
     FM131600 22009KT P6SM SKC
     FM131900 21012G18KT P6SM SKC
     FM140600 24007KT P6SM SKC=

USA.gov is the U.S. government's official web portal to all federal, state and local government web resources and services.